KSHR/SHR METAR and TAF weather

Enter ICAO airport designator
Station Type Date Time Source
KSHR METAR 2020/07/14 15:53 UTC NOAA

KSHR 141553Z AUTO 00000KT 10SM OVC090 19/08 A3006 RMK AO2 SLP157 T01890083


Station Type Date Time Source
KSHR Decoded METAR 2020/07/14 15:53 UTC NOAA

SHERIDAN COUNTY AIRPORT, WY, United States (KSHR) 44-46N 106-58W 1202M
Jul 14, 2020 - 11:53 AM EDT / 2020.07.14 1553 UTC
Wind: Calm:0
Visibility: 10 mile(s):0
Sky conditions: overcast
Temperature: 66.0 F (18.9 C)
Dew Point: 46.9 F (8.3 C)
Relative Humidity: 50%
Pressure (altimeter): 30.06 in. Hg (1017 hPa)
ob: KSHR 141553Z AUTO 00000KT 10SM OVC090 19/08 A3006 RMK AO2 SLP157 T01890083
cycle: 16

Station Type Date Time Source
KSHR TAF 2020/07/14 12:22 UTC NOAA

TAF KSHR 141120Z 1412/1512 VRB03KT P6SM VCSH BKN070
FM141700 33010KT P6SM BKN250
FM150100 VRB05KT P6SM BKN250

Example: see airport list